Time;durP1;ratioP1;P1;durP2;ratioP2;P2;SDS_P1;SDS_P2;PMS_P1;PMS_P2;Temp;Humidity;BMP_temperature;BMP_pressure;BME280_temperature;BME280_humidity;BME280_pressure;Samples;Min_cycle;Max_cycle;Signal;HPM_P1;HPM_P2
2021/01/27 00:00:30;;;;;;;6.50;2.87;;;0.70;99.90;;;;;;5048151;28;20455;-49
2021/01/27 00:02:57;;;;;;;2.80;2.20;;;0.50;99.90;;;;;;5048174;28;20481;-49
2021/01/27 00:05:28;;;;;;;2.80;2.30;;;0.70;99.90;;;;;;5049619;28;20455;-49
2021/01/27 00:07:54;;;;;;;3.10;2.00;;;0.70;99.90;;;;;;5046756;28;20459;-49
2021/01/27 00:10:21;;;;;;;3.40;2.70;;;0.70;99.90;;;;;;5046942;28;20485;-49
2021/01/27 00:12:47;;;;;;;3.83;2.50;;;0.60;99.90;;;;;;5044917;28;20493;-50
2021/01/27 00:15:18;;;;;;;3.13;2.30;;;0.50;99.90;;;;;;5046888;28;20497;-50
2021/01/27 00:17:45;;;;;;;4.00;2.27;;;0.40;99.90;;;;;;5048646;28;20480;-49
2021/01/27 00:20:15;;;;;;;3.73;2.63;;;0.40;99.90;;;;;;5045546;28;20443;-50
2021/01/27 00:22:42;;;;;;;2.80;2.00;;;0.40;99.90;;;;;;5049046;28;20482;-50
2021/01/27 00:25:11;;;;;;;3.40;2.43;;;0.30;99.90;;;;;;5048964;28;20466;-50
2021/01/27 00:27:38;;;;;;;6.83;2.70;;;0.30;99.90;;;;;;5048156;28;20466;-50
2021/01/27 00:30:07;;;;;;;3.10;2.20;;;0.30;99.90;;;;;;5047278;28;20490;-50
2021/01/27 00:32:34;;;;;;;1.87;1.60;;;0.40;99.90;;;;;;5048515;28;20486;-49
2021/01/27 00:35:01;;;;;;;2.20;2.00;;;0.30;99.90;;;;;;5048799;28;20497;-50
2021/01/27 00:37:27;;;;;;;3.00;2.10;;;0.50;99.90;;;;;;5061205;28;20523;-50
2021/01/27 00:39:54;;;;;;;2.77;2.20;;;0.60;99.90;;;;;;5052986;28;20467;-49
2021/01/27 00:42:21;;;;;;;2.10;1.80;;;0.50;99.90;;;;;;5050496;28;20550;-50
2021/01/27 00:44:47;;;;;;;4.20;2.23;;;0.30;99.90;;;;;;5045298;28;20457;-50
2021/01/27 00:47:14;;;;;;;3.77;2.27;;;0.10;99.90;;;;;;5052471;28;20463;-50
2021/01/27 00:49:40;;;;;;;2.90;2.20;;;0.00;99.90;;;;;;5051625;28;20481;-49
2021/01/27 00:52:07;;;;;;;4.00;2.27;;;0.00;99.90;;;;;;5049087;28;20904;-50
2021/01/27 00:54:33;;;;;;;4.97;2.50;;;0.00;99.90;;;;;;5049902;28;20470;-49
2021/01/27 00:57:01;;;;;;;1.60;1.50;;;0.00;99.90;;;;;;5052288;28;20466;-49
2021/01/27 00:59:27;;;;;;;6.37;2.40;;;0.30;99.90;;;;;;5051528;28;20537;-49
2021/01/27 01:01:54;;;;;;;2.90;2.17;;;0.10;99.90;;;;;;5050642;28;20497;-49
2021/01/27 01:04:20;;;;;;;4.20;2.77;;;0.00;99.90;;;;;;5051709;28;20812;-49
2021/01/27 01:06:47;;;;;;;6.13;2.67;;;0.00;99.90;;;;;;5051848;28;20461;-49
2021/01/27 01:09:13;;;;;;;2.00;1.80;;;-0.10;99.90;;;;;;5044437;28;20492;-49
2021/01/27 01:11:40;;;;;;;5.17;2.23;;;-0.10;99.90;;;;;;5052434;28;20470;-49
2021/01/27 01:14:08;;;;;;;4.53;2.20;;;0.00;99.90;;;;;;5046096;28;20466;-50
2021/01/27 01:16:34;;;;;;;5.60;2.60;;;0.00;99.90;;;;;;5051731;28;20471;-50
2021/01/27 01:19:01;;;;;;;7.67;2.60;;;-0.10;99.90;;;;;;5051981;28;20461;-50
2021/01/27 01:21:27;;;;;;;5.37;2.67;;;-0.10;99.90;;;;;;5051536;28;20464;-49
2021/01/27 01:23:54;;;;;;;4.10;2.13;;;-0.10;99.90;;;;;;5051739;28;21105;-49
2021/01/27 01:26:20;;;;;;;2.23;1.80;;;-0.10;99.90;;;;;;5051659;28;20470;-50
2021/01/27 01:28:47;;;;;;;1.87;1.73;;;-0.10;99.90;;;;;;5052590;28;20452;-49
2021/01/27 01:31:14;;;;;;;3.87;2.03;;;0.00;99.90;;;;;;5051420;28;20501;-50
2021/01/27 01:33:41;;;;;;;3.13;1.77;;;0.00;99.90;;;;;;5047806;28;20485;-49
2021/01/27 01:36:08;;;;;;;4.60;1.93;;;-0.10;99.90;;;;;;5049643;28;20529;-49
2021/01/27 01:38:34;;;;;;;2.43;1.60;;;-0.10;99.90;;;;;;5052342;28;20539;-49
2021/01/27 01:41:03;;;;;;;3.93;1.60;;;-0.20;99.90;;;;;;5049678;28;20457;-50
2021/01/27 01:43:31;;;;;;;1.87;1.63;;;-0.40;99.90;;;;;;5051419;28;20481;-50
2021/01/27 01:45:59;;;;;;;1.50;1.20;;;-0.30;99.90;;;;;;5050262;28;21021;-49
2021/01/27 01:48:33;;;;;;;2.60;1.77;;;-0.30;99.90;;;;;;5051133;28;20471;-49
2021/01/27 01:51:04;;;;;;;1.63;1.30;;;-0.10;99.90;;;;;;5049165;28;20488;-49
2021/01/27 01:53:30;;;;;;;2.27;1.43;;;-0.10;99.90;;;;;;5052053;28;20479;-49
2021/01/27 01:56:00;;;;;;;2.03;1.40;;;-0.20;99.90;;;;;;5048661;28;20951;-49
2021/01/27 01:58:27;;;;;;;2.80;1.20;;;-0.20;99.90;;;;;;5050069;28;20999;-49
2021/01/27 02:00:57;;;;;;;2.30;1.23;;;-0.20;99.90;;;;;;5050722;28;20472;-49
2021/01/27 02:03:24;;;;;;;2.87;1.40;;;-0.30;99.90;;;;;;5048627;28;20487;-50
2021/01/27 02:05:51;;;;;;;2.57;1.27;;;-0.30;99.90;;;;;;5048439;28;20511;-49
2021/01/27 02:08:18;;;;;;;3.10;1.57;;;-0.30;99.90;;;;;;5049565;28;20476;-49
2021/01/27 02:10:45;;;;;;;2.37;1.17;;;-0.50;99.90;;;;;;5051335;28;20486;-49
2021/01/27 02:13:29;;;;;;;1.83;1.30;;;-0.40;99.90;;;;;;5050950;28;20882;-49
2021/01/27 02:16:13;;;;;;;2.60;1.40;;;-0.30;99.90;;;;;;5049086;28;20464;-49
2021/01/27 02:19:05;;;;;;;3.90;1.40;;;-0.40;99.90;;;;;;5049339;28;20850;-50
2021/01/27 02:22:02;;;;;;;5.40;1.33;;;-0.80;99.90;;;;;;5051309;28;20447;-49
2021/01/27 02:25:03;;;;;;;2.73;1.40;;;-0.60;99.90;;;;;;5047049;28;20473;-49
2021/01/27 02:27:36;;;;;;;2.70;1.53;;;-0.40;99.90;;;;;;5050632;28;20490;-49
2021/01/27 02:30:20;;;;;;;3.33;1.30;;;-0.40;99.90;;;;;;5050479;28;20490;-49
2021/01/27 02:33:14;;;;;;;2.77;1.70;;;-0.50;99.90;;;;;;5049333;28;20485;-49
2021/01/27 02:35:46;;;;;;;1.97;1.13;;;-0.50;99.90;;;;;;5048124;28;20469;-49
2021/01/27 02:38:19;;;;;;;1.53;1.40;;;-0.50;99.90;;;;;;5050321;28;20532;-49
2021/01/27 02:40:50;;;;;;;4.20;2.23;;;-0.60;99.90;;;;;;5050557;28;20461;-49
2021/01/27 02:43:24;;;;;;;1.60;1.40;;;-0.50;99.90;;;;;;5048850;28;20909;-49
2021/01/27 02:45:57;;;;;;;2.13;1.40;;;-0.50;99.90;;;;;;5049236;28;20529;-49
2021/01/27 02:48:31;;;;;;;2.27;1.20;;;-0.40;99.90;;;;;;5051234;28;20447;-49
2021/01/27 02:51:06;;;;;;;1.80;1.23;;;-0.50;99.90;;;;;;5049725;28;20476;-49
2021/01/27 02:53:37;;;;;;;1.37;1.27;;;-0.60;99.90;;;;;;5044989;28;20488;-49
2021/01/27 02:56:15;;;;;;;1.47;1.37;;;-0.50;99.90;;;;;;5048795;28;20496;-49
2021/01/27 02:58:49;;;;;;;1.93;1.20;;;-0.50;99.90;;;;;;5049682;28;20468;-49
2021/01/27 03:01:23;;;;;;;2.10;1.47;;;-0.50;99.90;;;;;;5044908;28;20465;-49
2021/01/27 03:03:57;;;;;;;1.40;1.30;;;-0.50;99.90;;;;;;5049654;28;20867;-49
2021/01/27 03:06:25;;;;;;;2.70;1.20;;;-0.60;99.90;;;;;;5049520;28;20472;-49
2021/01/27 03:08:57;;;;;;;2.10;1.33;;;-0.60;99.90;;;;;;5048470;28;20466;-49
2021/01/27 03:11:26;;;;;;;1.67;1.20;;;-0.60;99.90;;;;;;5049892;28;20585;-49
2021/01/27 03:13:52;;;;;;;2.60;1.10;;;-0.60;99.90;;;;;;5055781;22;20506;-53
2021/01/27 03:16:24;;;;;;;2.17;1.20;;;-0.60;99.90;;;;;;5029038;28;20474;-50
2021/01/27 03:19:01;;;;;;;1.77;1.37;;;-0.60;99.90;;;;;;5032279;28;20461;-50
2021/01/27 03:21:38;;;;;;;1.20;1.10;;;-0.60;99.90;;;;;;5042729;28;20498;-50
2021/01/27 03:24:11;;;;;;;1.60;1.37;;;-0.60;99.90;;;;;;5029812;28;20514;-50
2021/01/27 03:26:44;;;;;;;2.43;1.40;;;-0.80;99.90;;;;;;5028653;28;20461;-49
2021/01/27 03:29:19;;;;;;;2.87;1.57;;;-0.80;99.90;;;;;;5030345;28;20462;-49
2021/01/27 03:31:46;;;;;;;1.30;1.20;;;-0.90;99.90;;;;;;5028742;28;20461;-50
2021/01/27 03:34:18;;;;;;;1.10;1.00;;;-0.80;99.90;;;;;;5028175;28;20494;-49
2021/01/27 03:36:52;;;;;;;2.03;1.10;;;-0.80;99.90;;;;;;5028693;28;20464;-50
2021/01/27 03:39:23;;;;;;;3.83;1.00;;;-0.90;99.90;;;;;;5027837;28;20456;-50
2021/01/27 03:41:57;;;;;;;2.90;1.10;;;-1.00;99.90;;;;;;5024330;28;20464;-49
2021/01/27 03:44:29;;;;;;;1.50;1.10;;;-0.80;99.90;;;;;;5029268;28;20541;-52
2021/01/27 03:47:00;;;;;;;4.37;1.30;;;-0.70;99.90;;;;;;5029882;28;20865;-52
2021/01/27 03:49:31;;;;;;;1.40;1.23;;;-0.80;99.90;;;;;;5029796;28;20453;-52
2021/01/27 03:52:02;;;;;;;1.90;1.30;;;-0.80;99.90;;;;;;5028694;28;20470;-52
2021/01/27 03:54:32;;;;;;;1.30;1.20;;;-0.80;99.90;;;;;;5027725;28;20465;-52
2021/01/27 03:57:02;;;;;;;1.80;1.43;;;-0.80;99.90;;;;;;5029456;28;20461;-52
2021/01/27 03:59:29;;;;;;;1.90;1.00;;;-0.90;99.90;;;;;;5030524;28;20445;-52
2021/01/27 04:01:58;;;;;;;1.97;1.10;;;-0.90;99.90;;;;;;5029587;28;20464;-51
2021/01/27 04:04:26;;;;;;;1.10;0.93;;;-1.00;99.90;;;;;;5031044;28;20461;-52
2021/01/27 04:06:53;;;;;;;2.47;1.13;;;-1.00;99.90;;;;;;5030025;28;20461;-52
2021/01/27 04:09:21;;;;;;;1.30;1.10;;;-0.80;99.90;;;;;;5027876;28;20461;-52
2021/01/27 04:11:47;;;;;;;1.43;1.23;;;-0.70;99.90;;;;;;5026737;28;20833;-51
2021/01/27 04:14:14;;;;;;;3.80;1.20;;;-0.70;99.90;;;;;;5032109;28;20492;-51
2021/01/27 04:16:43;;;;;;;2.20;1.40;;;-0.80;99.90;;;;;;5032665;28;20493;-49
2021/01/27 04:19:09;;;;;;;1.93;0.93;;;-0.80;99.90;;;;;;5033330;28;20504;-49
2021/01/27 04:21:36;;;;;;;2.10;1.07;;;-0.80;99.90;;;;;;5030803;28;20469;-49
2021/01/27 04:24:03;;;;;;;3.00;1.10;;;-0.90;99.90;;;;;;5032428;28;20485;-49
2021/01/27 04:26:30;;;;;;;1.63;1.00;;;-0.90;99.90;;;;;;5033269;28;20466;-49
2021/01/27 04:28:57;;;;;;;3.33;1.60;;;-0.90;99.90;;;;;;5033192;28;20828;-50
2021/01/27 04:31:23;;;;;;;1.60;0.97;;;-0.80;99.90;;;;;;5032058;28;20521;-49
2021/01/27 04:33:50;;;;;;;3.87;1.40;;;-0.80;99.90;;;;;;5031148;28;20489;-50
2021/01/27 04:36:16;;;;;;;4.13;1.40;;;-0.80;99.90;;;;;;5031821;28;20477;-50
2021/01/27 04:38:43;;;;;;;2.60;0.90;;;-0.90;99.90;;;;;;5033030;28;20465;-49
2021/01/27 04:41:10;;;;;;;4.30;1.40;;;-0.80;99.90;;;;;;5033050;28;20442;-49
2021/01/27 04:43:43;;;;;;;1.60;0.80;;;-0.90;99.90;;;;;;5030638;28;20555;-49
2021/01/27 04:46:18;;;;;;;3.33;1.33;;;-0.80;99.90;;;;;;5030512;28;20547;-49
2021/01/27 04:48:53;;;;;;;1.20;1.00;;;-0.90;99.90;;;;;;5032448;28;20468;-49
2021/01/27 04:51:26;;;;;;;2.83;0.97;;;-0.90;99.90;;;;;;5028877;28;20868;-48
2021/01/27 04:54:23;;;;;;;1.03;0.63;;;-0.90;99.90;;;;;;5031281;28;20480;-50
2021/01/27 04:57:10;;;;;;;1.30;1.00;;;-0.90;99.90;;;;;;5022384;28;20540;-52
2021/01/27 04:59:56;;;;;;;2.13;1.30;;;-0.90;99.90;;;;;;5018386;28;20885;-51
2021/01/27 05:02:39;;;;;;;2.50;1.33;;;-0.70;99.90;;;;;;5029606;28;20493;-52
2021/01/27 05:05:09;;;;;;;3.20;1.47;;;-0.60;99.90;;;;;;5032635;28;20534;-51
2021/01/27 05:07:51;;;;;;;3.83;1.67;;;-0.70;99.90;;;;;;5032485;28;20449;-52
2021/01/27 05:10:23;;;;;;;1.63;1.17;;;-0.70;99.90;;;;;;5027268;28;20497;-52
2021/01/27 05:12:53;;;;;;;1.33;1.20;;;-0.70;99.90;;;;;;5023157;28;21025;-51
2021/01/27 05:15:22;;;;;;;1.43;0.97;;;-0.60;99.90;;;;;;5023321;28;20466;-51
2021/01/27 05:17:50;;;;;;;1.53;0.90;;;-0.60;99.90;;;;;;5023389;28;20463;-51
2021/01/27 05:20:19;;;;;;;1.37;1.13;;;-0.60;99.90;;;;;;5024580;28;20476;-48
2021/01/27 05:22:46;;;;;;;2.83;1.40;;;-0.70;99.90;;;;;;5022263;28;20569;-49
2021/01/27 05:25:18;;;;;;;1.23;0.90;;;-0.60;99.90;;;;;;5022311;28;20453;-49
2021/01/27 05:27:46;;;;;;;1.57;0.97;;;-0.60;99.90;;;;;;5022184;28;20469;-47
2021/01/27 05:30:25;;;;;;;3.33;1.03;;;-0.60;99.90;;;;;;5023150;28;20491;-49
2021/01/27 05:32:54;;;;;;;2.40;1.30;;;-0.60;99.90;;;;;;5024734;28;20836;-51
2021/01/27 05:35:40;;;;;;;1.90;1.10;;;-0.50;99.90;;;;;;5032277;28;20445;-50
2021/01/27 05:38:23;;;;;;;1.63;1.23;;;-0.50;99.90;;;;;;5018960;28;20549;-49
2021/01/27 05:40:52;;;;;;;1.90;1.13;;;-0.50;99.90;;;;;;5024003;28;20514;-49
2021/01/27 05:43:24;;;;;;;3.30;1.33;;;-0.60;99.90;;;;;;5022453;28;20520;-49
2021/01/27 05:45:52;;;;;;;1.60;1.23;;;-0.60;99.90;;;;;;5022418;28;20465;-49
2021/01/27 05:48:28;;;;;;;1.60;1.20;;;-0.80;99.90;;;;;;5025062;28;20966;-50
2021/01/27 05:51:10;;;;;;;1.53;1.20;;;-0.70;99.90;;;;;;5031739;28;20524;-49
2021/01/27 05:53:37;;;;;;;1.60;1.20;;;-0.70;99.90;;;;;;5032424;28;20474;-50
2021/01/27 05:56:06;;;;;;;2.03;1.30;;;-0.70;99.90;;;;;;5025322;28;20455;-48
2021/01/27 05:58:36;;;;;;;3.63;1.00;;;-0.60;99.90;;;;;;5028619;28;20467;-48
2021/01/27 06:01:22;;;;;;;2.10;1.20;;;-0.70;99.90;;;;;;5031545;28;20878;-48
2021/01/27 06:03:58;;;;;;;2.10;1.23;;;-0.60;99.90;;;;;;5031909;28;20470;-51
2021/01/27 06:06:27;;;;;;;1.80;1.20;;;-0.60;99.90;;;;;;5031542;28;20454;-50
2021/01/27 06:08:56;;;;;;;1.33;1.10;;;-0.60;99.90;;;;;;5019843;28;20492;-50
2021/01/27 06:11:23;;;;;;;4.77;1.40;;;-0.70;99.90;;;;;;5026542;28;20486;-50
2021/01/27 06:14:02;;;;;;;2.20;1.30;;;-0.50;99.90;;;;;;5031065;28;20544;-51
2021/01/27 06:16:34;;;;;;;1.33;1.10;;;-0.60;99.90;;;;;;5031342;28;20465;-51
2021/01/27 06:19:10;;;;;;;4.70;0.90;;;-0.70;99.90;;;;;;5031164;28;20950;-52
2021/01/27 06:22:20;;;;;;;1.30;0.90;;;-0.60;99.90;;;;;;5031116;28;20831;-51
2021/01/27 06:25:17;;;;;;;1.40;1.03;;;-0.60;99.90;;;;;;5031646;28;20453;-51
2021/01/27 06:27:59;;;;;;;1.83;1.10;;;-0.60;99.90;;;;;;5027041;28;20458;-51
2021/01/27 06:30:59;;;;;;;1.20;1.00;;;-0.60;99.90;;;;;;5031477;28;20485;-51
2021/01/27 06:33:59;;;;;;;4.53;1.43;;;-0.60;99.90;;;;;;5019837;28;20485;-52
2021/01/27 06:36:42;;;;;;;1.57;0.83;;;-0.50;99.90;;;;;;5030932;28;20956;-51
2021/01/27 06:39:35;;;;;;;1.73;1.03;;;-0.50;99.90;;;;;;5023053;28;20977;-51
2021/01/27 06:42:12;;;;;;;1.70;0.80;;;-0.70;99.90;;;;;;5006422;28;20458;-50
2021/01/27 06:45:03;;;;;;;1.00;0.90;;;-0.60;99.90;;;;;;5025652;28;20474;-52
2021/01/27 06:48:02;;;;;;;1.73;0.90;;;-0.60;99.90;;;;;;5025988;28;20507;-51
2021/01/27 06:50:46;;;;;;;1.47;1.07;;;-0.50;99.90;;;;;;5028762;28;20526;-51
2021/01/27 06:53:44;;;;;;;4.00;1.03;;;-0.50;99.90;;;;;;5030328;28;20527;-52
2021/01/27 06:56:29;;;;;;;3.07;1.00;;;-0.50;99.90;;;;;;5023056;28;20548;-51
2021/01/27 06:59:31;;;;;;;1.77;1.00;;;-0.50;99.90;;;;;;5029616;28;20875;-51
2021/01/27 07:02:42;;;;;;;2.50;1.00;;;-0.50;99.90;;;;;;5030692;28;20816;-51
2021/01/27 07:05:30;;;;;;;1.30;1.03;;;-0.40;99.90;;;;;;4999401;28;20503;-51
2021/01/27 07:08:16;;;;;;;1.97;1.30;;;-0.40;99.90;;;;;;5030571;28;20449;-49
2021/01/27 07:10:54;;;;;;;6.00;1.70;;;-0.60;99.90;;;;;;5030447;28;20527;-50
2021/01/27 07:13:36;;;;;;;1.53;1.43;;;-0.60;99.90;;;;;;5029221;28;20504;-49
2021/01/27 07:16:06;;;;;;;5.23;1.60;;;-0.30;99.90;;;;;;5030273;28;20453;-48
2021/01/27 07:19:15;;;;;;;2.80;1.40;;;-0.30;99.90;;;;;;5029366;28;21012;-50
2021/01/27 07:21:51;;;;;;;5.30;1.47;;;-0.50;99.90;;;;;;5025015;28;20857;-49
2021/01/27 07:24:25;;;;;;;2.30;1.10;;;-0.40;99.90;;;;;;5030300;28;20515;-52
2021/01/27 07:26:57;;;;;;;6.40;1.53;;;-0.30;99.90;;;;;;5030806;28;20441;-49
2021/01/27 07:29:27;;;;;;;2.17;1.33;;;-0.40;99.90;;;;;;5030327;28;20436;-49
2021/01/27 07:31:56;;;;;;;1.40;1.10;;;-0.40;99.90;;;;;;5030058;28;20913;-49
2021/01/27 07:34:35;;;;;;;4.27;1.00;;;-0.30;99.90;;;;;;5030321;28;20953;-51
2021/01/27 07:37:14;;;;;;;1.83;1.00;;;-0.20;99.90;;;;;;5029832;28;20443;-50
2021/01/27 07:39:51;;;;;;;1.40;1.23;;;-0.30;99.90;;;;;;5030465;28;21031;-50
2021/01/27 07:42:22;;;;;;;1.20;0.90;;;-0.40;99.90;;;;;;5030052;28;20473;-50
2021/01/27 07:44:55;;;;;;;1.33;1.00;;;-0.30;99.90;;;;;;5031066;28;20446;-49
2021/01/27 07:47:51;;;;;;;3.17;1.17;;;-0.20;99.90;;;;;;5033809;28;20449;-50
2021/01/27 07:50:20;;;;;;;1.97;1.37;;;-0.20;99.90;;;;;;5034782;28;20482;-50
2021/01/27 07:53:04;;;;;;;4.23;1.50;;;-0.10;99.90;;;;;;5033939;28;21002;-50
2021/01/27 07:55:39;;;;;;;5.57;1.33;;;0.00;99.90;;;;;;5032144;28;20512;-51
2021/01/27 07:58:12;;;;;;;8.90;1.70;;;-0.10;99.90;;;;;;5029120;28;20499;-50
2021/01/27 08:00:48;;;;;;;1.20;1.10;;;0.00;99.90;;;;;;5034439;28;20453;-49
2021/01/27 08:03:27;;;;;;;2.40;1.20;;;0.10;99.90;;;;;;5034508;28;20493;-50
2021/01/27 08:06:00;;;;;;;2.40;1.10;;;0.30;99.90;;;;;;5032197;28;20935;-51
2021/01/27 08:08:27;;;;;;;2.10;1.10;;;0.10;99.90;;;;;;5031773;28;20471;-49
2021/01/27 08:10:55;;;;;;;1.30;1.00;;;0.20;99.90;;;;;;5043487;28;20485;-50
2021/01/27 08:13:40;;;;;;;2.00;1.47;;;0.20;99.90;;;;;;5048538;28;20527;-50
2021/01/27 08:16:24;;;;;;;5.23;1.20;;;0.10;99.90;;;;;;5053001;28;20502;-50
2021/01/27 08:19:19;;;;;;;1.07;0.97;;;-0.10;99.90;;;;;;5053646;28;20470;-50
2021/01/27 08:21:54;;;;;;;3.37;1.27;;;0.10;99.90;;;;;;5037265;28;20894;-49
2021/01/27 08:24:52;;;;;;;3.23;1.47;;;0.30;99.90;;;;;;5033691;28;20493;-50
2021/01/27 08:27:38;;;;;;;3.73;2.00;;;0.10;99.90;;;;;;5044720;28;20472;-50
2021/01/27 08:30:22;;;;;;;3.50;1.77;;;0.10;99.90;;;;;;5034559;28;20482;-50
2021/01/27 08:32:48;;;;;;;1.93;1.73;;;0.20;99.90;;;;;;5033832;28;20498;-50
2021/01/27 08:35:45;;;;;;;3.00;1.63;;;0.30;99.90;;;;;;5033792;28;20452;-50
2021/01/27 08:38:21;;;;;;;4.87;1.60;;;0.30;99.90;;;;;;5020829;28;21040;-50
2021/01/27 08:40:48;;;;;;;3.60;1.60;;;0.40;99.90;;;;;;5033216;28;20951;-50
2021/01/27 08:43:17;;;;;;;3.10;0.90;;;0.40;99.90;;;;;;5031972;28;20508;-50
2021/01/27 08:45:46;;;;;;;1.00;0.90;;;0.40;99.90;;;;;;5032864;28;20451;-50
2021/01/27 08:48:14;;;;;;;4.27;1.37;;;0.40;99.90;;;;;;5033219;28;20477;-49
2021/01/27 08:50:45;;;;;;;1.67;1.00;;;0.40;99.90;;;;;;5032088;28;21045;-50
2021/01/27 08:53:13;;;;;;;1.47;1.27;;;0.50;99.90;;;;;;5032946;28;20535;-50
2021/01/27 08:56:01;;;;;;;2.73;2.07;;;0.60;99.90;;;;;;5031721;28;20468;-49
2021/01/27 08:58:45;;;;;;;5.33;2.93;;;0.60;99.90;;;;;;5031693;28;20478;-50
2021/01/27 09:01:52;;;;;;;2.20;1.40;;;0.70;99.90;;;;;;5032800;28;20474;-50
2021/01/27 09:04:35;;;;;;;3.00;1.40;;;0.80;99.90;;;;;;5032914;28;20480;-50
2021/01/27 09:07:05;;;;;;;1.67;1.37;;;1.00;99.90;;;;;;5032989;28;20840;-50
2021/01/27 09:09:38;;;;;;;2.80;1.23;;;1.20;99.90;;;;;;5033018;28;20970;-49
2021/01/27 09:12:07;;;;;;;2.27;1.23;;;1.00;99.90;;;;;;5032017;28;20480;-49
2021/01/27 09:14:35;;;;;;;1.47;1.10;;;1.10;99.90;;;;;;5030915;28;20452;-50
2021/01/27 09:17:05;;;;;;;2.57;1.60;;;1.20;99.90;;;;;;5072658;22;20872;-47
2021/01/27 09:19:35;;;;;;;1.93;1.20;;;1.00;99.90;;;;;;5051714;28;20464;-50
2021/01/27 09:22:19;;;;;;;1.30;1.20;;;1.00;99.90;;;;;;5052519;28;20455;-50
2021/01/27 09:24:48;;;;;;;1.37;0.90;;;1.10;99.90;;;;;;5050801;28;20484;-50
2021/01/27 09:27:18;;;;;;;1.17;1.00;;;1.10;99.90;;;;;;5049418;28;20890;-49
2021/01/27 09:29:53;;;;;;;1.93;1.20;;;1.20;99.90;;;;;;5052175;28;20461;-50
2021/01/27 09:32:19;;;;;;;3.03;1.20;;;1.20;99.90;;;;;;5051973;28;20450;-49
2021/01/27 09:34:46;;;;;;;2.90;1.90;;;1.00;99.90;;;;;;5051201;28;20455;-49
2021/01/27 09:37:17;;;;;;;1.87;1.20;;;1.10;99.90;;;;;;5051321;28;20541;-49
2021/01/27 09:39:50;;;;;;;2.13;1.30;;;0.90;99.90;;;;;;5048506;28;20448;-49
2021/01/27 09:42:24;;;;;;;7.80;1.50;;;1.00;99.90;;;;;;5051389;28;20458;-49
2021/01/27 09:44:58;;;;;;;1.73;1.33;;;1.20;99.90;;;;;;5050690;28;20473;-49
2021/01/27 09:47:26;;;;;;;4.00;1.30;;;1.10;99.90;;;;;;5052284;28;20529;-49
2021/01/27 09:49:56;;;;;;;6.83;3.07;;;0.90;99.90;;;;;;5051792;28;20970;-49
2021/01/27 09:52:24;;;;;;;4.90;2.70;;;0.90;99.90;;;;;;5071766;28;20545;-49
2021/01/27 09:54:54;;;;;;;5.70;1.57;;;1.10;99.90;;;;;;5059333;28;20462;-49
2021/01/27 09:57:24;;;;;;;3.50;1.60;;;1.30;99.90;;;;;;5051193;28;20537;-49
2021/01/27 09:59:53;;;;;;;2.07;1.70;;;1.20;99.90;;;;;;5051876;28;20515;-50
2021/01/27 10:02:28;;;;;;;5.27;2.53;;;0.90;99.90;;;;;;5051542;28;20457;-49
2021/01/27 10:04:54;;;;;;;5.67;2.30;;;0.80;99.90;;;;;;5051442;28;20453;-49
2021/01/27 10:07:25;;;;;;;2.83;1.53;;;1.00;99.90;;;;;;5051062;28;20508;-49
2021/01/27 10:09:57;;;;;;;4.90;2.13;;;0.80;99.90;;;;;;5030870;28;20922;-49
2021/01/27 10:12:26;;;;;;;6.57;2.10;;;0.80;99.90;;;;;;5031738;28;20519;-49
2021/01/27 10:15:07;;;;;;;3.43;1.87;;;0.90;99.90;;;;;;5031158;28;20508;-49
2021/01/27 10:17:35;;;;;;;6.40;1.90;;;0.90;99.90;;;;;;5031459;28;20858;-50
2021/01/27 10:20:07;;;;;;;6.33;3.40;;;0.70;99.90;;;;;;5031685;28;20452;-50
2021/01/27 10:22:38;;;;;;;3.43;2.10;;;0.80;99.90;;;;;;5031383;28;20497;-49
2021/01/27 10:25:27;;;;;;;3.00;2.20;;;0.60;99.90;;;;;;5032289;28;20498;-49
2021/01/27 10:28:23;;;;;;;4.27;2.33;;;0.50;99.90;;;;;;5031733;28;20933;-49
2021/01/27 10:30:55;;;;;;;3.87;2.27;;;0.60;99.90;;;;;;5018245;28;20573;-50
2021/01/27 10:33:38;;;;;;;4.73;2.10;;;0.50;99.90;;;;;;5031125;28;20461;-49
2021/01/27 10:36:27;;;;;;;5.30;2.10;;;0.50;99.90;;;;;;5030797;28;20947;-50
2021/01/27 10:39:19;;;;;;;5.67;2.00;;;0.50;99.90;;;;;;5031274;28;20928;-49
2021/01/27 10:41:49;;;;;;;7.10;2.40;;;0.30;99.90;;;;;;5034102;28;20454;-49
2021/01/27 10:44:21;;;;;;;4.07;2.10;;;0.40;99.90;;;;;;5049845;28;20447;-50
2021/01/27 10:46:47;;;;;;;3.77;1.63;;;0.30;99.90;;;;;;5048843;28;20226;-49
2021/01/27 10:49:15;;;;;;;3.30;1.70;;;0.10;99.90;;;;;;5050853;28;20454;-49
2021/01/27 10:51:42;;;;;;;2.37;1.60;;;-0.10;99.90;;;;;;5047411;28;20482;-49
2021/01/27 10:54:09;;;;;;;4.53;1.70;;;-0.20;99.90;;;;;;5048346;28;20461;-49
2021/01/27 10:56:36;;;;;;;3.10;1.73;;;-0.20;99.90;;;;;;5050284;28;20838;-49
2021/01/27 10:59:03;;;;;;;2.20;1.70;;;-0.40;99.90;;;;;;5050776;28;20453;-49
2021/01/27 11:01:29;;;;;;;2.33;1.60;;;-0.30;99.90;;;;;;5050348;28;20462;-49
2021/01/27 11:03:56;;;;;;;4.53;1.70;;;-0.40;99.90;;;;;;5050371;28;21029;-49
2021/01/27 11:06:23;;;;;;;2.90;1.50;;;-0.50;99.90;;;;;;5050430;28;20470;-50
2021/01/27 11:08:51;;;;;;;3.57;1.70;;;-0.40;99.90;;;;;;5049546;28;20973;-50
2021/01/27 11:11:18;;;;;;;3.20;1.63;;;-0.50;99.90;;;;;;5049959;28;20480;-50
2021/01/27 11:13:46;;;;;;;4.07;1.60;;;-0.60;99.90;;;;;;5034297;28;20458;-50
2021/01/27 11:16:13;;;;;;;2.70;1.70;;;-0.80;99.90;;;;;;5029909;28;20485;-50
2021/01/27 11:18:41;;;;;;;1.70;1.50;;;-0.80;99.90;;;;;;5041682;28;20457;-50
2021/01/27 11:21:09;;;;;;;4.63;1.70;;;-0.80;99.90;;;;;;5049220;28;20479;-50
2021/01/27 11:23:36;;;;;;;3.73;1.63;;;-0.70;99.90;;;;;;5050077;28;20462;-50
2021/01/27 11:26:03;;;;;;;2.20;1.57;;;-0.80;99.90;;;;;;5048714;28;20997;-49
2021/01/27 11:28:30;;;;;;;8.07;2.50;;;-0.80;99.90;;;;;;5045218;28;20457;-50
2021/01/27 11:30:57;;;;;;;3.60;2.20;;;-0.90;99.90;;;;;;5046079;28;20480;-50
2021/01/27 11:33:24;;;;;;;4.50;2.77;;;-0.90;99.90;;;;;;5049868;28;20460;-50
2021/01/27 11:35:51;;;;;;;7.33;3.87;;;-0.90;99.90;;;;;;5049808;28;21043;-50
2021/01/27 11:38:18;;;;;;;4.70;2.93;;;-0.80;99.90;;;;;;5049831;28;20449;-50
2021/01/27 11:40:45;;;;;;;3.90;2.67;;;-0.70;99.90;;;;;;5050469;28;20860;-50
2021/01/27 11:43:12;;;;;;;3.67;2.03;;;-0.60;99.90;;;;;;5049272;28;20448;-50
2021/01/27 11:45:39;;;;;;;2.53;1.90;;;-0.60;99.90;;;;;;5049952;28;20471;-50
2021/01/27 11:48:06;;;;;;;2.53;2.10;;;-0.50;99.90;;;;;;5050208;28;20825;-50
2021/01/27 11:50:32;;;;;;;2.23;1.80;;;-0.40;99.90;;;;;;5050127;28;20484;-50
2021/01/27 11:52:59;;;;;;;3.50;1.53;;;-0.40;99.90;;;;;;5049691;28;20456;-50
2021/01/27 11:55:25;;;;;;;2.37;2.00;;;-0.40;99.90;;;;;;5050567;28;20476;-50
2021/01/27 11:57:53;;;;;;;2.30;1.97;;;-0.50;99.90;;;;;;5049158;28;20471;-50
2021/01/27 12:00:21;;;;;;;3.33;1.67;;;-0.70;99.90;;;;;;5030338;28;20441;-49
2021/01/27 12:02:48;;;;;;;2.00;1.63;;;-0.60;99.90;;;;;;5030250;28;20454;-50
2021/01/27 12:05:16;;;;;;;2.30;1.97;;;-0.70;99.90;;;;;;5030096;28;20838;-50
2021/01/27 12:07:43;;;;;;;3.37;1.87;;;-0.60;99.90;;;;;;5046141;28;21008;-50
2021/01/27 12:10:10;;;;;;;3.90;2.03;;;-0.50;99.90;;;;;;5049148;28;20455;-50
2021/01/27 12:12:37;;;;;;;3.70;1.87;;;-0.50;99.90;;;;;;5049244;28;20509;-49
2021/01/27 12:15:06;;;;;;;2.10;1.87;;;-0.50;99.90;;;;;;5049247;28;20586;-49
2021/01/27 12:17:33;;;;;;;3.37;2.10;;;-0.50;99.90;;;;;;5049485;28;20448;-49
2021/01/27 12:19:59;;;;;;;2.83;2.03;;;-0.70;99.90;;;;;;5049579;28;20444;-49
2021/01/27 12:22:26;;;;;;;2.03;1.60;;;-0.50;99.90;;;;;;5049536;28;20444;-48
2021/01/27 12:24:52;;;;;;;2.60;1.90;;;-0.60;99.90;;;;;;5049143;28;20504;-48
2021/01/27 12:27:19;;;;;;;4.00;1.90;;;-0.60;99.90;;;;;;5049128;28;20452;-49
2021/01/27 12:29:46;;;;;;;3.37;1.60;;;-0.60;99.90;;;;;;5045736;28;20452;-49
2021/01/27 12:32:13;;;;;;;3.77;1.90;;;-0.60;99.90;;;;;;5052744;28;20485;-49
2021/01/27 12:34:40;;;;;;;3.67;2.07;;;-0.60;99.90;;;;;;5053108;28;20459;-49
2021/01/27 12:37:07;;;;;;;4.40;1.83;;;-0.50;99.90;;;;;;5053264;28;20595;-49
2021/01/27 12:39:33;;;;;;;2.40;1.90;;;-0.50;99.90;;;;;;5041912;28;20461;-49
2021/01/27 12:42:00;;;;;;;9.63;1.80;;;-0.60;99.90;;;;;;5033077;28;20445;-49
2021/01/27 12:44:26;;;;;;;2.87;2.10;;;-0.70;99.90;;;;;;5032985;28;20454;-49
2021/01/27 12:46:54;;;;;;;2.20;1.80;;;-0.70;99.90;;;;;;5049135;28;20464;-49
2021/01/27 12:49:22;;;;;;;2.40;1.90;;;-0.50;99.90;;;;;;5033171;28;20479;-50
2021/01/27 12:51:49;;;;;;;2.60;2.10;;;-0.50;99.90;;;;;;5032980;28;20489;-49
2021/01/27 12:54:15;;;;;;;3.20;2.57;;;-0.20;99.90;;;;;;5051600;28;20962;-49
2021/01/27 12:56:42;;;;;;;3.00;2.20;;;-0.20;99.90;;;;;;5053006;28;20871;-49
2021/01/27 12:59:08;;;;;;;5.73;2.20;;;-0.20;99.90;;;;;;5053245;28;20510;-50
2021/01/27 13:01:35;;;;;;;3.83;1.90;;;-0.10;99.90;;;;;;5052742;28;20994;-49
2021/01/27 13:04:02;;;;;;;2.23;1.90;;;0.10;99.90;;;;;;5052736;28;20450;-49
2021/01/27 13:06:29;;;;;;;2.30;1.87;;;0.20;99.90;;;;;;5052491;28;20984;-49
2021/01/27 13:08:56;;;;;;;2.63;1.90;;;0.30;99.90;;;;;;5052403;28;20536;-49
2021/01/27 13:11:22;;;;;;;3.77;1.60;;;0.40;99.90;;;;;;5052774;28;20823;-49
2021/01/27 13:13:49;;;;;;;1.80;1.70;;;0.40;99.90;;;;;;5052168;28;20539;-49
2021/01/27 13:16:16;;;;;;;2.17;1.83;;;0.30;99.90;;;;;;5051736;28;20506;-49
2021/01/27 13:18:44;;;;;;;2.70;1.70;;;0.30;99.90;;;;;;5032707;28;20516;-50